createdAt,value
2019-02-16T00:00:56.680Z,74.60
2019-02-16T00:03:25.719Z,73.50
2019-02-16T00:05:54.302Z,72.80
2019-02-16T00:08:22.672Z,71.80
2019-02-16T00:10:51.103Z,71.00
2019-02-16T00:13:19.850Z,70.60
2019-02-16T00:15:48.195Z,70.50
2019-02-16T00:18:16.577Z,71.10
2019-02-16T00:20:44.984Z,69.60
2019-02-16T00:23:16.135Z,69.40
2019-02-16T00:25:45.740Z,69.70
2019-02-16T00:28:14.794Z,69.40
2019-02-16T00:30:43.156Z,70.20
2019-02-16T00:33:11.549Z,71.00
2019-02-16T00:35:40.700Z,71.80
2019-02-16T00:38:09.063Z,72.80
2019-02-16T00:40:41.196Z,73.70
2019-02-16T00:43:09.595Z,74.10
2019-02-16T00:45:38.636Z,74.40
2019-02-16T00:48:07.763Z,75.60
2019-02-16T00:50:36.470Z,76.10
2019-02-16T00:53:04.829Z,75.80
2019-02-16T00:55:34.143Z,75.90
2019-02-16T00:58:03.103Z,76.70
2019-02-16T01:00:31.461Z,77.20
2019-02-16T01:02:59.859Z,76.80
2019-02-16T01:05:28.224Z,76.20
2019-02-16T01:07:56.655Z,76.20
2019-02-16T01:10:25.334Z,76.50
2019-02-16T01:12:53.766Z,76.30
2019-02-16T01:15:22.123Z,76.40
2019-02-16T01:17:50.772Z,76.40
2019-02-16T01:20:19.456Z,76.80
2019-02-16T01:22:48.074Z,76.70
2019-02-16T01:25:16.629Z,76.80
2019-02-16T01:27:45.307Z,75.60
2019-02-16T01:30:13.680Z,75.00
2019-02-16T01:32:42.090Z,75.90
2019-02-16T01:35:10.458Z,76.00
2019-02-16T01:37:38.808Z,76.30
2019-02-16T01:40:09.447Z,76.40
2019-02-16T01:42:37.813Z,77.20
2019-02-16T01:45:07.743Z,77.60
2019-02-16T01:47:36.103Z,77.90
2019-02-16T01:50:06.438Z,78.40
2019-02-16T01:52:35.390Z,77.40
2019-02-16T01:55:04.129Z,76.10
2019-02-16T01:57:32.799Z,75.00
2019-02-16T02:00:01.496Z,74.90
2019-02-16T02:02:29.935Z,74.50
2019-02-16T02:04:58.315Z,74.10
2019-02-16T02:07:29.324Z,74.70
2019-02-16T02:09:57.972Z,75.00
2019-02-16T02:12:26.327Z,74.90
2019-02-16T02:14:54.716Z,74.80
2019-02-16T02:17:23.080Z,74.40
2019-02-16T02:19:51.453Z,74.10
2019-02-16T02:22:19.867Z,73.90
2019-02-16T02:24:48.228Z,74.00
2019-02-16T02:27:17.358Z,74.20
2019-02-16T02:29:45.797Z,74.30
2019-02-16T02:32:14.971Z,74.30
2019-02-16T02:34:43.323Z,74.80
2019-02-16T02:37:11.715Z,75.00
2019-02-16T02:39:40.344Z,75.10
2019-02-16T02:42:08.705Z,75.00
2019-02-16T02:44:37.093Z,75.10
2019-02-16T02:47:05.458Z,75.30
2019-02-16T02:49:33.825Z,75.50
2019-02-16T02:52:02.543Z,75.80
2019-02-16T02:54:51.952Z,76.00
2019-02-16T02:57:20.908Z,76.20
2019-02-16T02:59:49.271Z,77.30
2019-02-16T03:02:17.641Z,78.20
2019-02-16T03:05:06.323Z,78.90
2019-02-16T03:07:34.685Z,79.20
2019-02-16T03:10:03.126Z,79.50
2019-02-16T03:12:31.515Z,81.10
2019-02-16T03:14:59.872Z,81.40
2019-02-16T03:17:28.262Z,82.00
2019-02-16T03:19:57.333Z,82.40
2019-02-16T03:22:29.252Z,82.20
2019-02-16T03:24:57.618Z,82.70
2019-02-16T03:27:59.029Z,82.80
2019-02-16T03:30:54.401Z,83.00
2019-02-16T03:33:41.105Z,82.40
2019-02-16T03:36:33.353Z,82.20
2019-02-16T03:39:22.767Z,81.60
2019-02-16T03:41:51.131Z,80.80
2019-02-16T03:44:20.114Z,80.00
2019-02-16T03:46:49.169Z,79.00
2019-02-16T03:49:17.855Z,78.50
2019-02-16T03:51:47.082Z,77.70
2019-02-16T03:54:15.503Z,77.40
2019-02-16T03:56:43.863Z,77.10
2019-02-16T03:59:12.252Z,76.40
2019-02-16T04:01:41.275Z,75.70
2019-02-16T04:04:10.213Z,74.90
2019-02-16T04:06:38.603Z,74.00
2019-02-16T04:09:06.966Z,73.40
2019-02-16T04:11:35.613Z,73.00
2019-02-16T04:14:03.999Z,72.60
2019-02-16T04:16:32.680Z,72.40
2019-02-16T04:19:01.039Z,72.70
2019-02-16T04:21:30.043Z,71.60
2019-02-16T04:23:58.404Z,71.60
2019-02-16T04:26:27.106Z,71.90
2019-02-16T04:28:56.172Z,72.20
2019-02-16T04:31:24.539Z,72.60
2019-02-16T04:33:53.667Z,72.50
2019-02-16T04:36:22.054Z,72.30
2019-02-16T04:38:51.204Z,72.10
2019-02-16T04:41:20.343Z,72.10
2019-02-16T04:43:50.406Z,72.00
2019-02-16T04:46:19.547Z,72.20
2019-02-16T04:48:48.349Z,72.00
2019-02-16T04:51:16.693Z,71.60
2019-02-16T04:53:45.409Z,70.80
2019-02-16T04:56:34.830Z,70.10
2019-02-16T04:59:03.226Z,69.30
2019-02-16T05:01:31.592Z,70.10
2019-02-16T05:04:01.958Z,70.40
2019-02-16T05:06:30.506Z,70.60
2019-02-16T05:08:59.324Z,70.80
2019-02-16T05:11:27.702Z,71.20
2019-02-16T05:13:56.091Z,71.50
2019-02-16T05:16:25.064Z,71.80
2019-02-16T05:18:53.440Z,72.30
2019-02-16T05:21:21.787Z,72.40
2019-02-16T05:23:50.249Z,72.40
2019-02-16T05:26:18.645Z,72.40
2019-02-16T05:28:46.996Z,72.10
2019-02-16T05:31:15.656Z,72.20
2019-02-16T05:33:44.842Z,72.70
2019-02-16T05:36:13.223Z,73.00
2019-02-16T05:38:41.617Z,73.20
2019-02-16T05:41:09.983Z,73.30
2019-02-16T05:43:38.398Z,73.50
2019-02-16T05:46:06.770Z,73.10
2019-02-16T05:48:35.719Z,73.00
2019-02-16T05:51:04.105Z,72.90
2019-02-16T05:53:32.489Z,72.90
2019-02-16T05:56:01.165Z,72.50
2019-02-16T05:58:29.563Z,72.00
2019-02-16T06:00:57.919Z,71.80
2019-02-16T06:03:26.317Z,72.20
2019-02-16T06:05:54.677Z,72.50
2019-02-16T06:08:23.043Z,73.00
2019-02-16T06:10:51.443Z,73.40
2019-02-16T06:13:20.004Z,73.50
2019-02-16T06:15:48.404Z,73.60
2019-02-16T06:18:17.459Z,73.30
2019-02-16T06:20:45.826Z,72.70
2019-02-16T06:23:14.887Z,72.30
2019-02-16T06:25:43.256Z,72.10
2019-02-16T06:28:11.659Z,72.00
2019-02-16T06:30:40.789Z,71.40
2019-02-16T06:33:10.015Z,71.10
2019-02-16T06:35:42.743Z,71.10
2019-02-16T06:38:11.098Z,70.80
2019-02-16T06:40:41.389Z,70.80
2019-02-16T06:43:09.744Z,70.90
2019-02-16T06:45:38.110Z,70.80
2019-02-16T06:48:06.493Z,70.80
2019-02-16T06:50:37.032Z,70.60
2019-02-16T06:53:13.074Z,70.60
2019-02-16T06:55:47.639Z,70.90
2019-02-16T06:58:16.025Z,71.20
2019-02-16T07:00:44.383Z,71.10
2019-02-16T07:03:12.737Z,71.10
2019-02-16T07:05:41.128Z,71.00
2019-02-16T07:08:09.485Z,69.90
2019-02-16T07:10:38.090Z,68.70
2019-02-16T07:13:06.467Z,67.90
2019-02-16T07:16:13.915Z,67.20
2019-02-16T07:21:37.764Z,66.50
2019-02-16T07:24:06.119Z,66.20
2019-02-16T07:26:34.483Z,66.10
2019-02-16T07:29:03.635Z,65.60
2019-02-16T07:31:32.300Z,65.30
2019-02-16T07:34:00.665Z,64.90
2019-02-16T07:36:29.065Z,64.10
2019-02-16T07:38:57.427Z,63.70
2019-02-16T07:41:26.721Z,63.10
2019-02-16T07:43:56.719Z,63.30
2019-02-16T07:46:43.239Z,62.90
2019-02-16T07:49:13.218Z,63.20
2019-02-16T07:51:54.012Z,62.20
2019-02-16T07:54:35.763Z,62.10
2019-02-16T07:57:11.577Z,61.40
2019-02-16T07:59:53.269Z,60.40
2019-02-16T08:02:23.790Z,60.60
2019-02-16T08:05:09.217Z,58.00
2019-02-16T08:07:39.222Z,53.40
2019-02-16T08:10:15.086Z,49.90
2019-02-16T08:12:50.641Z,46.40
2019-02-16T08:15:21.341Z,44.00
2019-02-16T08:17:51.387Z,41.00
2019-02-16T08:20:24.159Z,40.00
2019-02-16T08:22:54.175Z,38.70
2019-02-16T08:25:26.730Z,37.60
2019-02-16T08:28:09.042Z,37.40
2019-02-16T08:30:51.106Z,36.50
2019-02-16T08:33:21.852Z,37.00
2019-02-16T08:35:54.968Z,37.70
2019-02-16T08:38:40.261Z,37.30
2019-02-16T08:44:35.524Z,37.00
2019-02-16T08:47:13.754Z,37.40
2019-02-16T08:52:38.267Z,35.70
2019-02-16T08:55:11.020Z,34.40
2019-02-16T08:57:43.766Z,34.10
2019-02-16T09:00:16.959Z,34.20
2019-02-16T09:02:50.343Z,32.10
2019-02-16T09:05:22.969Z,31.70
2019-02-16T09:07:55.964Z,30.40
2019-02-16T09:10:41.577Z,29.90
2019-02-16T09:13:29.711Z,30.20
2019-02-16T09:16:01.082Z,31.10
2019-02-16T09:18:42.647Z,31.30
2019-02-16T09:21:32.140Z,29.90
2019-02-16T09:24:18.271Z,30.50
2019-02-16T09:26:48.995Z,30.50
2019-02-16T09:29:21.720Z,29.60
2019-02-16T09:31:57.745Z,30.20
2019-02-16T09:34:36.771Z,31.00
2019-02-16T09:37:06.834Z,29.70
2019-02-16T09:39:36.840Z,31.60
2019-02-16T09:42:06.851Z,30.20
2019-02-16T09:44:46.362Z,28.40
2019-02-16T09:47:28.647Z,27.00
2019-02-16T09:50:13.709Z,28.90
2019-02-16T09:52:49.431Z,29.50
2019-02-16T09:55:22.164Z,28.80
2019-02-16T09:57:54.613Z,30.00
2019-02-16T10:00:36.936Z,30.00
2019-02-16T10:03:06.954Z,28.60
2019-02-16T10:05:55.640Z,28.50
2019-02-16T10:08:28.440Z,27.90
2019-02-16T10:11:01.174Z,27.20
2019-02-16T10:13:37.156Z,27.70
2019-02-16T10:16:09.903Z,27.50
2019-02-16T10:18:46.191Z,26.90
2019-02-16T10:21:22.205Z,27.80
2019-02-16T10:23:54.891Z,28.20
2019-02-16T10:26:25.223Z,31.00
2019-02-16T10:28:58.182Z,29.50
2019-02-16T10:31:31.299Z,30.40
2019-02-16T10:34:18.292Z,31.10
2019-02-16T10:36:51.266Z,32.10
2019-02-16T10:39:26.978Z,35.40
2019-02-16T10:42:13.758Z,34.90
2019-02-16T10:44:44.368Z,36.30
2019-02-16T10:47:26.157Z,36.50
2019-02-16T10:50:13.376Z,37.40
2019-02-16T10:52:44.065Z,38.90
2019-02-16T10:55:14.093Z,39.00
2019-02-16T10:57:44.476Z,37.70
2019-02-16T11:00:14.496Z,37.50
2019-02-16T11:02:56.894Z,38.70
2019-02-16T11:05:30.547Z,39.10
2019-02-16T11:08:06.322Z,40.00
2019-02-16T11:10:36.674Z,40.10
2019-02-16T11:13:21.527Z,40.40
2019-02-16T11:15:57.696Z,40.40
2019-02-16T11:18:30.892Z,39.50
2019-02-16T11:21:17.138Z,41.40
2019-02-16T11:23:47.310Z,39.50
2019-02-16T11:26:29.483Z,39.80
2019-02-16T11:29:16.167Z,40.70
2019-02-16T11:32:02.517Z,39.00
2019-02-16T11:34:33.991Z,40.10
2019-02-16T11:37:15.998Z,39.90
2019-02-16T11:39:52.079Z,40.80
2019-02-16T11:42:25.631Z,39.70
2019-02-16T11:44:58.943Z,40.20
2019-02-16T11:47:36.399Z,38.70
2019-02-16T11:50:09.487Z,39.00
2019-02-16T11:52:39.485Z,40.30
2019-02-16T11:55:13.155Z,39.50
2019-02-16T11:57:43.163Z,39.70
2019-02-16T12:00:22.257Z,39.90
2019-02-16T12:02:52.575Z,40.20
2019-02-16T12:05:22.570Z,39.60
2019-02-16T12:08:01.763Z,39.30
2019-02-16T12:10:37.883Z,40.90
2019-02-16T12:13:20.107Z,39.90
2019-02-16T12:15:51.123Z,41.80
2019-02-16T12:18:21.738Z,39.70
2019-02-16T12:20:52.550Z,39.20
2019-02-16T12:23:22.815Z,39.50
2019-02-16T12:25:54.386Z,39.30
2019-02-16T12:31:19.640Z,40.20
2019-02-16T12:33:56.295Z,38.70
2019-02-16T12:36:53.011Z,38.80
2019-02-16T12:39:29.777Z,39.50
2019-02-16T12:42:03.753Z,39.30
2019-02-16T12:44:34.027Z,39.00
2019-02-16T12:47:05.012Z,39.10
2019-02-16T12:49:51.588Z,38.20
2019-02-16T12:52:38.038Z,38.60
2019-02-16T12:55:25.563Z,39.50
2019-02-16T12:57:55.608Z,38.60
2019-02-16T13:00:34.684Z,39.20
2019-02-16T13:03:16.695Z,39.40
2019-02-16T13:05:58.829Z,39.20
2019-02-16T13:08:28.868Z,38.70
2019-02-16T13:10:58.887Z,39.30
2019-02-16T13:13:31.555Z,38.80
2019-02-16T13:16:13.891Z,39.20
2019-02-16T13:18:49.752Z,38.90
2019-02-16T13:21:20.564Z,39.00
2019-02-16T13:23:59.493Z,39.50
2019-02-16T13:26:35.109Z,40.50
2019-02-16T13:29:05.143Z,38.90
2019-02-16T13:31:47.112Z,38.60
2019-02-16T13:34:19.875Z,38.80
2019-02-16T13:36:55.784Z,39.00
2019-02-16T13:39:31.422Z,40.20
2019-02-16T13:42:01.432Z,38.90
2019-02-16T13:44:31.496Z,38.80
2019-02-16T13:47:10.604Z,39.70
2019-02-16T13:49:50.568Z,39.40
2019-02-16T13:52:20.596Z,39.00
2019-02-16T13:55:02.830Z,38.10
2019-02-16T13:57:41.855Z,38.20
2019-02-16T14:00:14.754Z,39.30
2019-02-16T14:02:45.379Z,38.80
2019-02-16T14:05:15.444Z,38.40
2019-02-16T14:07:54.575Z,38.60
2019-02-16T14:10:30.728Z,38.00
2019-02-16T14:13:12.584Z,38.20
2019-02-16T14:15:57.947Z,38.50
2019-02-16T14:18:26.376Z,38.90
2019-02-16T14:20:54.917Z,38.80
2019-02-16T14:23:23.726Z,39.80
2019-02-16T14:25:52.216Z,39.00
2019-02-16T14:28:20.616Z,39.00
2019-02-16T14:30:49.005Z,39.10
2019-02-16T14:33:17.460Z,38.60
2019-02-16T14:35:46.162Z,38.20
2019-02-16T14:38:28.039Z,38.70
2019-02-16T14:40:56.418Z,38.80
2019-02-16T14:43:25.551Z,39.20
2019-02-16T14:45:54.960Z,39.20
2019-02-16T14:48:23.390Z,39.50
2019-02-16T14:50:52.024Z,39.40
2019-02-16T14:53:20.811Z,39.30
2019-02-16T14:55:54.085Z,39.60
2019-02-16T14:58:20.332Z,39.70
2019-02-16T15:00:49.603Z,39.50
2019-02-16T15:03:17.974Z,39.70
2019-02-16T15:05:46.487Z,39.60
2019-02-16T15:08:15.666Z,39.90
2019-02-16T15:10:44.800Z,40.20
2019-02-16T15:13:13.359Z,39.50
2019-02-16T15:15:41.786Z,40.00
2019-02-16T15:18:10.154Z,40.00
2019-02-16T15:20:39.112Z,40.10
2019-02-16T15:23:07.588Z,40.20
2019-02-16T15:25:36.384Z,40.50
2019-02-16T15:28:04.813Z,40.20
2019-02-16T15:30:33.446Z,40.50
2019-02-16T15:33:02.608Z,40.90
2019-02-16T15:35:31.492Z,41.40
2019-02-16T15:37:59.864Z,41.00
2019-02-16T15:40:28.247Z,41.40
2019-02-16T15:42:58.195Z,41.70
2019-02-16T15:45:26.987Z,41.60
2019-02-16T15:47:55.443Z,42.10
2019-02-16T15:50:23.838Z,41.60
2019-02-16T15:52:52.207Z,42.00
2019-02-16T15:55:20.673Z,41.90
2019-02-16T15:57:49.037Z,42.20
2019-02-16T16:00:21.634Z,43.00
2019-02-16T16:02:50.103Z,42.40
2019-02-16T16:05:19.136Z,42.50
2019-02-16T16:07:53.240Z,43.60
2019-02-16T16:10:32.587Z,43.30
2019-02-16T16:13:11.907Z,43.50
2019-02-16T16:18:40.918Z,44.10
2019-02-16T16:21:10.913Z,44.50
2019-02-16T16:23:46.922Z,45.70
2019-02-16T16:26:22.959Z,45.50
2019-02-16T16:29:00.385Z,46.10
2019-02-16T16:31:31.283Z,46.10
2019-02-16T16:34:05.280Z,45.90
2019-02-16T16:36:35.355Z,46.20
2019-02-16T16:39:05.358Z,46.80
2019-02-16T16:41:41.947Z,46.30
2019-02-16T16:44:18.148Z,47.20
2019-02-16T16:46:54.371Z,46.90
2019-02-16T16:49:24.382Z,47.00
2019-02-16T16:52:03.154Z,47.20
2019-02-16T16:54:34.710Z,47.40
2019-02-16T16:57:05.712Z,47.50
2019-02-16T17:02:36.631Z,48.40
2019-02-16T17:05:21.155Z,48.50
2019-02-16T17:07:51.587Z,48.60
2019-02-16T17:10:21.827Z,49.20
2019-02-16T17:12:58.025Z,49.30
2019-02-16T17:15:38.628Z,48.90
2019-02-16T17:18:10.430Z,49.00
2019-02-16T17:20:47.292Z,49.30
2019-02-16T17:23:41.590Z,49.00
2019-02-16T17:29:25.417Z,49.00
2019-02-16T17:31:58.697Z,48.90
2019-02-16T17:34:31.586Z,49.10
2019-02-16T17:37:13.385Z,48.90
2019-02-16T17:39:46.259Z,49.30
2019-02-16T17:42:16.404Z,50.00
2019-02-16T17:45:02.818Z,50.70
2019-02-16T17:50:40.234Z,52.60
2019-02-16T17:53:11.012Z,53.50
2019-02-16T17:55:53.108Z,54.10
2019-02-16T17:58:39.566Z,54.90
2019-02-16T18:01:15.683Z,54.90
2019-02-16T18:03:45.709Z,55.40
2019-02-16T18:06:21.491Z,56.10
2019-02-16T18:08:52.255Z,56.60
2019-02-16T18:11:47.392Z,57.30
2019-02-16T18:17:21.222Z,58.80
2019-02-16T18:19:58.173Z,59.30
2019-02-16T18:25:08.291Z,60.90
2019-02-16T18:27:45.129Z,59.60
2019-02-16T18:30:15.192Z,59.10
2019-02-16T18:32:48.037Z,59.00
2019-02-16T18:35:34.490Z,59.40
2019-02-16T18:38:04.863Z,60.20
2019-02-16T18:40:49.702Z,59.90
2019-02-16T18:46:06.417Z,60.30
2019-02-16T18:48:39.556Z,60.20
2019-02-16T18:54:04.571Z,60.40
2019-02-16T18:56:43.680Z,59.20
2019-02-16T18:59:14.827Z,59.20
2019-02-16T19:01:45.155Z,58.80
2019-02-16T19:04:21.036Z,59.50
2019-02-16T19:06:58.000Z,58.70
2019-02-16T19:09:28.103Z,58.60
2019-02-16T19:11:58.117Z,58.40
2019-02-16T19:14:28.211Z,58.30
2019-02-16T19:17:11.001Z,58.40
2019-02-16T19:19:42.777Z,58.40
2019-02-16T19:22:22.662Z,58.50
2019-02-16T19:24:52.821Z,58.80
2019-02-16T19:27:44.951Z,59.20
2019-02-16T19:30:24.483Z,59.80
2019-02-16T19:35:48.526Z,61.30
2019-02-16T19:41:09.603Z,62.50
2019-02-16T19:43:39.657Z,63.40
2019-02-16T19:46:13.208Z,63.90
2019-02-16T19:48:46.000Z,64.60
2019-02-16T19:51:19.164Z,66.00
2019-02-16T19:53:49.159Z,66.60
2019-02-16T19:56:19.494Z,66.80
2019-02-16T19:59:06.429Z,67.60
2019-02-16T20:04:50.438Z,68.70
2019-02-16T20:07:20.573Z,69.60
2019-02-16T20:12:50.035Z,71.70
2019-02-16T20:18:21.792Z,71.90
2019-02-16T20:21:03.313Z,72.20
2019-02-16T20:23:33.990Z,73.00
2019-02-16T20:26:06.941Z,74.00
2019-02-16T20:28:48.307Z,75.20
2019-02-16T20:31:24.731Z,75.20
2019-02-16T20:33:57.832Z,75.00
2019-02-16T20:39:27.377Z,75.80
2019-02-16T20:42:14.676Z,76.10
2019-02-16T20:45:01.058Z,76.20
2019-02-16T20:47:55.060Z,76.90
2019-02-16T20:50:40.052Z,78.10
2019-02-16T20:56:00.364Z,78.00
2019-02-16T20:58:36.334Z,77.80
2019-02-16T21:01:17.970Z,77.50
2019-02-16T21:04:04.080Z,77.70
2019-02-16T21:06:42.838Z,78.60
2019-02-16T21:09:16.688Z,79.20
2019-02-16T21:11:47.087Z,79.40
2019-02-16T21:14:20.102Z,80.00
2019-02-16T21:16:53.752Z,80.50
2019-02-16T21:19:43.483Z,79.10
2019-02-16T21:22:14.394Z,80.70
2019-02-16T21:24:47.682Z,81.80
2019-02-16T21:27:22.225Z,81.40
2019-02-16T21:30:11.401Z,82.00
2019-02-16T21:32:44.148Z,82.00
2019-02-16T21:35:31.407Z,81.50
2019-02-16T21:38:05.095Z,82.70
2019-02-16T21:43:27.271Z,81.70
2019-02-16T21:46:14.064Z,83.00
2019-02-16T21:48:44.099Z,82.50
2019-02-16T21:51:17.502Z,82.40
2019-02-16T21:53:48.620Z,83.20
2019-02-16T21:56:37.274Z,83.40
2019-02-16T21:59:18.871Z,82.60
2019-02-16T22:01:44.616Z,83.70
2019-02-16T22:04:16.190Z,83.50
2019-02-16T22:07:23.464Z,82.10
2019-02-16T22:09:53.505Z,82.30
2019-02-16T22:12:23.594Z,82.20
2019-02-16T22:14:52.055Z,82.20
2019-02-16T22:17:21.535Z,83.00
2019-02-16T22:19:51.079Z,82.90
2019-02-16T22:22:19.479Z,83.20
2019-02-16T22:24:48.205Z,84.20
2019-02-16T22:27:16.674Z,85.60
2019-02-16T22:29:45.107Z,84.30
2019-02-16T22:32:13.507Z,84.80
2019-02-16T22:34:41.877Z,85.00
2019-02-16T22:37:10.907Z,84.60
2019-02-16T22:39:39.602Z,84.30
2019-02-16T22:42:08.420Z,85.00
2019-02-16T22:44:36.813Z,85.00
2019-02-16T22:47:05.233Z,84.60
2019-02-16T22:49:33.932Z,84.40
2019-02-16T22:52:04.663Z,85.00
2019-02-16T22:54:33.079Z,85.50
2019-02-16T22:57:01.451Z,85.10
2019-02-16T22:59:29.849Z,85.40
2019-02-16T23:01:58.282Z,85.20
2019-02-16T23:04:27.290Z,86.80
2019-02-16T23:06:55.680Z,86.00
2019-02-16T23:09:25.689Z,86.50
2019-02-16T23:11:54.087Z,86.70
2019-02-16T23:14:24.148Z,86.50
2019-02-16T23:16:52.463Z,86.00
2019-02-16T23:19:21.434Z,86.70
2019-02-16T23:21:49.795Z,86.90
2019-02-16T23:24:18.178Z,87.70
2019-02-16T23:26:46.565Z,87.30
2019-02-16T23:29:14.930Z,86.90
2019-02-16T23:32:03.074Z,87.40
2019-02-16T23:34:31.433Z,87.00
2019-02-16T23:36:59.890Z,87.90
2019-02-16T23:39:28.215Z,87.30
2019-02-16T23:41:56.513Z,87.80
2019-02-16T23:44:25.166Z,87.00
2019-02-16T23:46:54.131Z,87.10
2019-02-16T23:49:22.575Z,86.90
2019-02-16T23:51:51.548Z,87.90
2019-02-16T23:54:20.607Z,88.30
2019-02-16T23:56:50.540Z,88.20
2019-02-16T23:59:18.898Z,89.10
